sensor_id;sensor_type;location;lat;lon;timestamp;temperature;humidity
27647;DHT22;42229;51.230;6.240;2023-05-16T00:00:59;11.90;99.90
27647;DHT22;42229;51.230;6.240;2023-05-16T00:03:26;11.90;99.90
27647;DHT22;42229;51.230;6.240;2023-05-16T00:05:52;11.80;99.90
27647;DHT22;42229;51.230;6.240;2023-05-16T00:08:19;11.80;99.90
27647;DHT22;42229;51.230;6.240;2023-05-16T00:10:45;11.70;99.90
27647;DHT22;42229;51.230;6.240;2023-05-16T00:13:11;11.70;99.90
27647;DHT22;42229;51.230;6.240;2023-05-16T00:15:38;11.70;99.90
27647;DHT22;42229;51.230;6.240;2023-05-16T00:18:04;11.70;99.90
27647;DHT22;42229;51.230;6.240;2023-05-16T00:20:30;11.60;99.90
27647;DHT22;42229;51.230;6.240;2023-05-16T00:22:57;11.60;99.90
27647;DHT22;42229;51.230;6.240;2023-05-16T00:25:25;11.60;99.90
27647;DHT22;42229;51.230;6.240;2023-05-16T00:27:52;11.60;99.90
27647;DHT22;42229;51.230;6.240;2023-05-16T00:30:18;11.60;99.90
27647;DHT22;42229;51.230;6.240;2023-05-16T00:32:44;11.60;99.90
27647;DHT22;42229;51.230;6.240;2023-05-16T00:35:11;11.50;99.90
27647;DHT22;42229;51.230;6.240;2023-05-16T00:37:37;11.60;99.90
27647;DHT22;42229;51.230;6.240;2023-05-16T00:40:04;11.60;99.90
27647;DHT22;42229;51.230;6.240;2023-05-16T00:42:30;11.50;99.90
27647;DHT22;42229;51.230;6.240;2023-05-16T00:44:57;11.50;99.90
27647;DHT22;42229;51.230;6.240;2023-05-16T00:47:23;11.50;99.90
27647;DHT22;42229;51.230;6.240;2023-05-16T00:49:49;11.50;99.90
27647;DHT22;42229;51.230;6.240;2023-05-16T00:52:15;11.50;99.90
27647;DHT22;42229;51.230;6.240;2023-05-16T00:54:42;11.50;99.90
27647;DHT22;42229;51.230;6.240;2023-05-16T00:57:08;11.40;99.90
27647;DHT22;42229;51.230;6.240;2023-05-16T00:59:35;11.50;99.90
27647;DHT22;42229;51.230;6.240;2023-05-16T01:02:01;11.40;99.90
27647;DHT22;42229;51.230;6.240;2023-05-16T01:04:28;11.50;99.90
27647;DHT22;42229;51.230;6.240;2023-05-16T01:06:55;11.40;99.90
27647;DHT22;42229;51.230;6.240;2023-05-16T01:09:22;11.50;99.90
27647;DHT22;42229;51.230;6.240;2023-05-16T01:12:02;11.40;99.90
27647;DHT22;42229;51.230;6.240;2023-05-16T01:20:02;11.40;99.90
27647;DHT22;42229;51.230;6.240;2023-05-16T01:22:35;11.40;99.90
27647;DHT22;42229;51.230;6.240;2023-05-16T01:28:20;11.30;99.90
27647;DHT22;42229;51.230;6.240;2023-05-16T01:30:49;11.30;99.90
27647;DHT22;42229;51.230;6.240;2023-05-16T01:33:16;11.30;99.90
27647;DHT22;42229;51.230;6.240;2023-05-16T01:35:48;11.30;99.90
27647;DHT22;42229;51.230;6.240;2023-05-16T01:38:26;11.20;99.90
27647;DHT22;42229;51.230;6.240;2023-05-16T01:40:58;11.20;99.90
27647;DHT22;42229;51.230;6.240;2023-05-16T01:43:32;11.20;99.90
27647;DHT22;42229;51.230;6.240;2023-05-16T01:46:02;11.20;99.90
27647;DHT22;42229;51.230;6.240;2023-05-16T01:48:32;11.20;99.90
27647;DHT22;42229;51.230;6.240;2023-05-16T01:51:01;11.20;99.90
27647;DHT22;42229;51.230;6.240;2023-05-16T01:53:31;11.20;99.90
27647;DHT22;42229;51.230;6.240;2023-05-16T01:55:59;11.20;99.90
27647;DHT22;42229;51.230;6.240;2023-05-16T01:58:31;11.20;99.90
27647;DHT22;42229;51.230;6.240;2023-05-16T02:00:59;11.20;99.90
27647;DHT22;42229;51.230;6.240;2023-05-16T02:03:26;11.20;99.90
27647;DHT22;42229;51.230;6.240;2023-05-16T02:05:52;11.20;99.90
27647;DHT22;42229;51.230;6.240;2023-05-16T02:08:19;11.10;99.90
27647;DHT22;42229;51.230;6.240;2023-05-16T02:10:45;11.10;99.90
27647;DHT22;42229;51.230;6.240;2023-05-16T02:13:12;11.10;99.90
27647;DHT22;42229;51.230;6.240;2023-05-16T02:15:38;11.10;99.90
27647;DHT22;42229;51.230;6.240;2023-05-16T02:18:04;11.00;99.90
27647;DHT22;42229;51.230;6.240;2023-05-16T02:20:30;11.00;99.90
27647;DHT22;42229;51.230;6.240;2023-05-16T02:22:57;11.00;99.90
27647;DHT22;42229;51.230;6.240;2023-05-16T02:25:24;11.00;99.90
27647;DHT22;42229;51.230;6.240;2023-05-16T02:27:50;11.00;99.90
27647;DHT22;42229;51.230;6.240;2023-05-16T02:30:16;11.00;99.90
27647;DHT22;42229;51.230;6.240;2023-05-16T02:32:42;10.90;99.90
27647;DHT22;42229;51.230;6.240;2023-05-16T02:35:13;10.90;99.90
27647;DHT22;42229;51.230;6.240;2023-05-16T02:37:40;10.90;99.90
27647;DHT22;42229;51.230;6.240;2023-05-16T02:40:07;10.90;99.90
27647;DHT22;42229;51.230;6.240;2023-05-16T02:42:35;10.80;99.90
27647;DHT22;42229;51.230;6.240;2023-05-16T02:45:02;10.80;99.90
27647;DHT22;42229;51.230;6.240;2023-05-16T02:47:28;10.70;99.90
27647;DHT22;42229;51.230;6.240;2023-05-16T02:49:54;10.70;99.90
27647;DHT22;42229;51.230;6.240;2023-05-16T02:52:21;10.60;99.90
27647;DHT22;42229;51.230;6.240;2023-05-16T02:54:47;10.60;99.90
27647;DHT22;42229;51.230;6.240;2023-05-16T02:57:13;10.50;99.90
27647;DHT22;42229;51.230;6.240;2023-05-16T02:59:39;10.50;99.90
27647;DHT22;42229;51.230;6.240;2023-05-16T03:02:06;10.40;99.90
27647;DHT22;42229;51.230;6.240;2023-05-16T03:04:33;10.40;99.90
27647;DHT22;42229;51.230;6.240;2023-05-16T03:06:59;10.30;99.90
27647;DHT22;42229;51.230;6.240;2023-05-16T03:09:26;10.30;99.90
27647;DHT22;42229;51.230;6.240;2023-05-16T03:11:53;10.20;99.90
27647;DHT22;42229;51.230;6.240;2023-05-16T03:14:19;10.20;99.90
27647;DHT22;42229;51.230;6.240;2023-05-16T03:16:45;10.10;99.90
27647;DHT22;42229;51.230;6.240;2023-05-16T03:19:12;10.10;99.90
27647;DHT22;42229;51.230;6.240;2023-05-16T03:21:38;10.00;99.90
27647;DHT22;42229;51.230;6.240;2023-05-16T03:24:05;10.00;99.90
27647;DHT22;42229;51.230;6.240;2023-05-16T03:26:32;10.00;99.90
27647;DHT22;42229;51.230;6.240;2023-05-16T03:28:59;9.90;99.90
27647;DHT22;42229;51.230;6.240;2023-05-16T03:31:25;9.90;99.90
27647;DHT22;42229;51.230;6.240;2023-05-16T03:33:51;9.80;99.90
27647;DHT22;42229;51.230;6.240;2023-05-16T03:36:20;9.80;99.90
27647;DHT22;42229;51.230;6.240;2023-05-16T03:38:46;9.80;99.90
27647;DHT22;42229;51.230;6.240;2023-05-16T03:41:12;9.70;99.90
27647;DHT22;42229;51.230;6.240;2023-05-16T03:43:39;9.70;99.90
27647;DHT22;42229;51.230;6.240;2023-05-16T03:46:05;9.70;99.90
27647;DHT22;42229;51.230;6.240;2023-05-16T03:48:31;9.60;99.90
27647;DHT22;42229;51.230;6.240;2023-05-16T03:50:57;9.50;99.90
27647;DHT22;42229;51.230;6.240;2023-05-16T03:53:24;9.50;99.90
27647;DHT22;42229;51.230;6.240;2023-05-16T03:55:50;9.50;99.90
27647;DHT22;42229;51.230;6.240;2023-05-16T03:58:16;9.40;99.90
27647;DHT22;42229;51.230;6.240;2023-05-16T04:00:42;9.50;99.90
27647;DHT22;42229;51.230;6.240;2023-05-16T04:03:11;9.40;99.90
27647;DHT22;42229;51.230;6.240;2023-05-16T04:05:37;9.30;99.90
27647;DHT22;42229;51.230;6.240;2023-05-16T04:08:03;9.30;99.90
27647;DHT22;42229;51.230;6.240;2023-05-16T04:10:29;9.30;99.90
27647;DHT22;42229;51.230;6.240;2023-05-16T04:12:56;9.20;99.90
27647;DHT22;42229;51.230;6.240;2023-05-16T04:15:22;9.20;99.90
27647;DHT22;42229;51.230;6.240;2023-05-16T04:17:48;9.20;99.90
27647;DHT22;42229;51.230;6.240;2023-05-16T04:20:14;9.20;99.90
27647;DHT22;42229;51.230;6.240;2023-05-16T04:22:41;9.20;99.90
27647;DHT22;42229;51.230;6.240;2023-05-16T04:25:08;9.20;99.90
27647;DHT22;42229;51.230;6.240;2023-05-16T04:27:35;9.20;99.90
27647;DHT22;42229;51.230;6.240;2023-05-16T04:30:02;9.20;99.90
27647;DHT22;42229;51.230;6.240;2023-05-16T04:32:28;9.30;99.90
27647;DHT22;42229;51.230;6.240;2023-05-16T04:34:55;9.20;99.90
27647;DHT22;42229;51.230;6.240;2023-05-16T04:37:21;9.30;99.90
27647;DHT22;42229;51.230;6.240;2023-05-16T04:39:47;9.30;99.90
27647;DHT22;42229;51.230;6.240;2023-05-16T04:42:14;9.30;99.90
27647;DHT22;42229;51.230;6.240;2023-05-16T04:44:41;9.20;99.90
27647;DHT22;42229;51.230;6.240;2023-05-16T04:47:07;9.30;99.90
27647;DHT22;42229;51.230;6.240;2023-05-16T04:49:34;9.20;99.90
27647;DHT22;42229;51.230;6.240;2023-05-16T04:52:00;9.30;99.90
27647;DHT22;42229;51.230;6.240;2023-05-16T04:54:27;9.30;99.90
27647;DHT22;42229;51.230;6.240;2023-05-16T04:56:53;9.30;99.90
27647;DHT22;42229;51.230;6.240;2023-05-16T04:59:19;9.40;99.90
27647;DHT22;42229;51.230;6.240;2023-05-16T05:01:46;9.40;99.90
27647;DHT22;42229;51.230;6.240;2023-05-16T05:04:12;9.50;99.90
27647;DHT22;42229;51.230;6.240;2023-05-16T05:06:39;9.50;99.90
27647;DHT22;42229;51.230;6.240;2023-05-16T05:09:05;9.60;99.90
27647;DHT22;42229;51.230;6.240;2023-05-16T05:11:32;9.60;99.90
27647;DHT22;42229;51.230;6.240;2023-05-16T05:13:58;9.60;99.90
27647;DHT22;42229;51.230;6.240;2023-05-16T05:16:24;9.70;99.90
27647;DHT22;42229;51.230;6.240;2023-05-16T05:18:50;9.70;99.90
27647;DHT22;42229;51.230;6.240;2023-05-16T05:21:17;9.80;99.90
27647;DHT22;42229;51.230;6.240;2023-05-16T05:23:45;9.80;99.90
27647;DHT22;42229;51.230;6.240;2023-05-16T05:26:11;9.80;99.90
27647;DHT22;42229;51.230;6.240;2023-05-16T05:28:38;9.90;99.90
27647;DHT22;42229;51.230;6.240;2023-05-16T05:31:04;9.90;99.90
27647;DHT22;42229;51.230;6.240;2023-05-16T05:33:30;10.00;99.90
27647;DHT22;42229;51.230;6.240;2023-05-16T05:35:56;10.00;99.90
27647;DHT22;42229;51.230;6.240;2023-05-16T05:38:23;10.10;99.90
27647;DHT22;42229;51.230;6.240;2023-05-16T05:40:49;10.20;99.90
27647;DHT22;42229;51.230;6.240;2023-05-16T05:43:15;10.30;99.90
27647;DHT22;42229;51.230;6.240;2023-05-16T05:45:42;10.40;99.90
27647;DHT22;42229;51.230;6.240;2023-05-16T05:48:08;10.50;99.90
27647;DHT22;42229;51.230;6.240;2023-05-16T05:50:35;10.60;99.90
27647;DHT22;42229;51.230;6.240;2023-05-16T05:53:02;10.70;99.90
27647;DHT22;42229;51.230;6.240;2023-05-16T05:55:28;10.90;99.90
27647;DHT22;42229;51.230;6.240;2023-05-16T05:57:55;11.00;99.90
27647;DHT22;42229;51.230;6.240;2023-05-16T06:00:21;11.10;99.90
27647;DHT22;42229;51.230;6.240;2023-05-16T06:02:47;11.20;99.90
27647;DHT22;42229;51.230;6.240;2023-05-16T06:05:14;11.30;99.90
27647;DHT22;42229;51.230;6.240;2023-05-16T06:07:40;11.30;99.90
27647;DHT22;42229;51.230;6.240;2023-05-16T06:10:06;11.40;99.90
27647;DHT22;42229;51.230;6.240;2023-05-16T06:12:33;11.50;99.90
27647;DHT22;42229;51.230;6.240;2023-05-16T06:14:59;11.60;99.90
27647;DHT22;42229;51.230;6.240;2023-05-16T06:17:26;11.60;99.90
27647;DHT22;42229;51.230;6.240;2023-05-16T06:19:52;11.70;99.90
27647;DHT22;42229;51.230;6.240;2023-05-16T06:22:18;11.80;99.90
27647;DHT22;42229;51.230;6.240;2023-05-16T06:24:44;11.80;99.90
27647;DHT22;42229;51.230;6.240;2023-05-16T06:27:11;11.90;99.90
27647;DHT22;42229;51.230;6.240;2023-05-16T06:29:37;11.90;99.90
27647;DHT22;42229;51.230;6.240;2023-05-16T06:32:03;11.90;99.90
27647;DHT22;42229;51.230;6.240;2023-05-16T06:34:29;11.90;99.90
27647;DHT22;42229;51.230;6.240;2023-05-16T06:36:57;11.90;99.90
27647;DHT22;42229;51.230;6.240;2023-05-16T06:39:23;11.90;99.90
27647;DHT22;42229;51.230;6.240;2023-05-16T06:41:49;11.90;99.90
27647;DHT22;42229;51.230;6.240;2023-05-16T06:44:15;11.90;99.90
27647;DHT22;42229;51.230;6.240;2023-05-16T06:46:42;11.80;99.90
27647;DHT22;42229;51.230;6.240;2023-05-16T06:49:08;11.80;99.90
27647;DHT22;42229;51.230;6.240;2023-05-16T06:51:34;11.90;99.90
27647;DHT22;42229;51.230;6.240;2023-05-16T06:54:00;11.90;99.90
27647;DHT22;42229;51.230;6.240;2023-05-16T06:56:27;11.90;99.90
27647;DHT22;42229;51.230;6.240;2023-05-16T06:58:53;12.00;99.90
27647;DHT22;42229;51.230;6.240;2023-05-16T07:01:19;12.00;99.90
27647;DHT22;42229;51.230;6.240;2023-05-16T07:03:46;12.10;99.90
27647;DHT22;42229;51.230;6.240;2023-05-16T07:06:12;12.20;99.90
27647;DHT22;42229;51.230;6.240;2023-05-16T07:08:38;12.30;99.90
27647;DHT22;42229;51.230;6.240;2023-05-16T07:11:04;12.30;99.90
27647;DHT22;42229;51.230;6.240;2023-05-16T07:13:31;12.40;99.90
27647;DHT22;42229;51.230;6.240;2023-05-16T07:15:57;12.50;99.90
27647;DHT22;42229;51.230;6.240;2023-05-16T07:18:23;12.60;99.90
27647;DHT22;42229;51.230;6.240;2023-05-16T07:20:49;12.70;99.90
27647;DHT22;42229;51.230;6.240;2023-05-16T07:23:16;12.80;99.90
27647;DHT22;42229;51.230;6.240;2023-05-16T07:25:42;12.90;99.90
27647;DHT22;42229;51.230;6.240;2023-05-16T07:28:08;12.90;99.90
27647;DHT22;42229;51.230;6.240;2023-05-16T07:30:35;12.90;99.90
27647;DHT22;42229;51.230;6.240;2023-05-16T07:33:01;12.90;99.90
27647;DHT22;42229;51.230;6.240;2023-05-16T07:35:27;12.90;99.90
27647;DHT22;42229;51.230;6.240;2023-05-16T07:37:54;12.90;99.90
27647;DHT22;42229;51.230;6.240;2023-05-16T07:40:20;12.90;99.90
27647;DHT22;42229;51.230;6.240;2023-05-16T07:42:50;12.80;99.90
27647;DHT22;42229;51.230;6.240;2023-05-16T07:45:16;12.80;99.90
27647;DHT22;42229;51.230;6.240;2023-05-16T07:47:43;12.90;99.90
27647;DHT22;42229;51.230;6.240;2023-05-16T07:50:09;13.00;99.90
27647;DHT22;42229;51.230;6.240;2023-05-16T07:52:36;13.10;99.90
27647;DHT22;42229;51.230;6.240;2023-05-16T07:55:02;13.10;99.90
27647;DHT22;42229;51.230;6.240;2023-05-16T07:57:28;13.20;99.90
27647;DHT22;42229;51.230;6.240;2023-05-16T07:59:55;13.30;99.90
27647;DHT22;42229;51.230;6.240;2023-05-16T08:02:24;13.40;99.90
27647;DHT22;42229;51.230;6.240;2023-05-16T08:04:55;13.50;99.90
27647;DHT22;42229;51.230;6.240;2023-05-16T08:07:24;13.60;99.90
27647;DHT22;42229;51.230;6.240;2023-05-16T08:09:50;13.70;99.90
27647;DHT22;42229;51.230;6.240;2023-05-16T08:12:17;13.80;99.90
27647;DHT22;42229;51.230;6.240;2023-05-16T08:14:43;13.90;99.90
27647;DHT22;42229;51.230;6.240;2023-05-16T08:17:09;14.10;99.90
27647;DHT22;42229;51.230;6.240;2023-05-16T08:19:35;14.20;99.90
27647;DHT22;42229;51.230;6.240;2023-05-16T08:22:02;14.40;99.90
27647;DHT22;42229;51.230;6.240;2023-05-16T08:24:28;14.60;99.90
27647;DHT22;42229;51.230;6.240;2023-05-16T08:26:54;14.70;99.90
27647;DHT22;42229;51.230;6.240;2023-05-16T08:29:20;14.80;99.90
27647;DHT22;42229;51.230;6.240;2023-05-16T08:31:47;14.90;99.90
27647;DHT22;42229;51.230;6.240;2023-05-16T08:34:13;15.00;99.90
27647;DHT22;42229;51.230;6.240;2023-05-16T08:36:39;15.10;99.90
27647;DHT22;42229;51.230;6.240;2023-05-16T08:39:06;15.10;99.90
27647;DHT22;42229;51.230;6.240;2023-05-16T08:41:32;15.10;99.90
27647;DHT22;42229;51.230;6.240;2023-05-16T08:43:58;15.10;99.90
27647;DHT22;42229;51.230;6.240;2023-05-16T08:46:25;15.10;99.90
27647;DHT22;42229;51.230;6.240;2023-05-16T08:48:53;15.10;99.90
27647;DHT22;42229;51.230;6.240;2023-05-16T08:51:24;15.20;99.90
27647;DHT22;42229;51.230;6.240;2023-05-16T08:53:59;15.30;99.90
27647;DHT22;42229;51.230;6.240;2023-05-16T08:56:28;15.50;99.90
27647;DHT22;42229;51.230;6.240;2023-05-16T08:58:54;15.60;99.90
27647;DHT22;42229;51.230;6.240;2023-05-16T09:01:22;15.70;99.90
27647;DHT22;42229;51.230;6.240;2023-05-16T09:03:49;15.80;99.90
27647;DHT22;42229;51.230;6.240;2023-05-16T09:06:17;15.90;99.90
27647;DHT22;42229;51.230;6.240;2023-05-16T09:08:43;15.90;99.90
27647;DHT22;42229;51.230;6.240;2023-05-16T09:11:09;15.90;99.90
27647;DHT22;42229;51.230;6.240;2023-05-16T09:13:36;15.90;99.90
27647;DHT22;42229;51.230;6.240;2023-05-16T09:16:07;15.90;99.90
27647;DHT22;42229;51.230;6.240;2023-05-16T09:18:33;15.90;99.90
27647;DHT22;42229;51.230;6.240;2023-05-16T09:21:01;15.90;99.90
27647;DHT22;42229;51.230;6.240;2023-05-16T09:23:27;15.90;99.90
27647;DHT22;42229;51.230;6.240;2023-05-16T09:25:54;15.90;99.90
27647;DHT22;42229;51.230;6.240;2023-05-16T09:28:22;16.00;99.90
27647;DHT22;42229;51.230;6.240;2023-05-16T09:30:51;16.00;99.90
27647;DHT22;42229;51.230;6.240;2023-05-16T09:33:17;16.10;99.90
27647;DHT22;42229;51.230;6.240;2023-05-16T09:35:44;16.10;99.90
27647;DHT22;42229;51.230;6.240;2023-05-16T09:38:14;16.20;99.90
27647;DHT22;42229;51.230;6.240;2023-05-16T09:40:41;16.30;99.90
27647;DHT22;42229;51.230;6.240;2023-05-16T09:43:07;16.40;99.90
27647;DHT22;42229;51.230;6.240;2023-05-16T09:45:34;16.50;99.90
27647;DHT22;42229;51.230;6.240;2023-05-16T09:48:03;16.60;99.90
27647;DHT22;42229;51.230;6.240;2023-05-16T09:50:31;16.60;99.90
27647;DHT22;42229;51.230;6.240;2023-05-16T09:52:58;16.60;99.90
27647;DHT22;42229;51.230;6.240;2023-05-16T09:55:25;16.70;99.90
27647;DHT22;42229;51.230;6.240;2023-05-16T09:57:51;16.60;99.90
27647;DHT22;42229;51.230;6.240;2023-05-16T10:00:17;16.60;99.90
27647;DHT22;42229;51.230;6.240;2023-05-16T10:02:44;16.60;99.90
27647;DHT22;42229;51.230;6.240;2023-05-16T10:05:13;16.50;99.90
27647;DHT22;42229;51.230;6.240;2023-05-16T10:07:42;16.60;99.90
27647;DHT22;42229;51.230;6.240;2023-05-16T10:10:09;16.60;99.90
27647;DHT22;42229;51.230;6.240;2023-05-16T10:12:35;16.60;99.90
27647;DHT22;42229;51.230;6.240;2023-05-16T10:15:03;16.70;99.90
27647;DHT22;42229;51.230;6.240;2023-05-16T10:17:32;16.80;99.90
27647;DHT22;42229;51.230;6.240;2023-05-16T10:20:04;17.00;99.90
27647;DHT22;42229;51.230;6.240;2023-05-16T10:22:35;17.10;99.90
27647;DHT22;42229;51.230;6.240;2023-05-16T10:25:07;17.20;99.90
27647;DHT22;42229;51.230;6.240;2023-05-16T10:27:38;17.30;99.90
27647;DHT22;42229;51.230;6.240;2023-05-16T10:30:05;17.30;99.90
27647;DHT22;42229;51.230;6.240;2023-05-16T10:32:32;17.30;99.90
27647;DHT22;42229;51.230;6.240;2023-05-16T10:34:58;17.30;99.90
27647;DHT22;42229;51.230;6.240;2023-05-16T10:37:28;17.30;99.90
27647;DHT22;42229;51.230;6.240;2023-05-16T10:39:56;17.30;99.90
27647;DHT22;42229;51.230;6.240;2023-05-16T10:42:22;17.20;99.90
27647;DHT22;42229;51.230;6.240;2023-05-16T10:44:52;17.20;99.90
27647;DHT22;42229;51.230;6.240;2023-05-16T10:47:19;17.20;99.90
27647;DHT22;42229;51.230;6.240;2023-05-16T10:49:45;17.10;99.90
27647;DHT22;42229;51.230;6.240;2023-05-16T10:52:12;17.20;99.90
27647;DHT22;42229;51.230;6.240;2023-05-16T10:54:48;17.20;99.90
27647;DHT22;42229;51.230;6.240;2023-05-16T10:57:21;17.30;99.90
27647;DHT22;42229;51.230;6.240;2023-05-16T10:59:49;17.30;99.90
27647;DHT22;42229;51.230;6.240;2023-05-16T11:02:23;17.40;99.90
27647;DHT22;42229;51.230;6.240;2023-05-16T11:04:50;17.50;99.90
27647;DHT22;42229;51.230;6.240;2023-05-16T11:07:18;17.40;99.90
27647;DHT22;42229;51.230;6.240;2023-05-16T11:09:44;17.40;99.90
27647;DHT22;42229;51.230;6.240;2023-05-16T11:12:11;17.40;99.90
27647;DHT22;42229;51.230;6.240;2023-05-16T11:14:38;17.40;99.90
27647;DHT22;42229;51.230;6.240;2023-05-16T11:17:11;17.40;99.90
27647;DHT22;42229;51.230;6.240;2023-05-16T11:19:47;17.40;99.90
27647;DHT22;42229;51.230;6.240;2023-05-16T11:25:05;17.50;99.90
27647;DHT22;42229;51.230;6.240;2023-05-16T11:27:34;17.50;99.90
27647;DHT22;42229;51.230;6.240;2023-05-16T11:32:38;17.40;99.90
27647;DHT22;42229;51.230;6.240;2023-05-16T11:35:07;17.40;99.90
27647;DHT22;42229;51.230;6.240;2023-05-16T11:37:37;17.40;99.90
27647;DHT22;42229;51.230;6.240;2023-05-16T11:40:07;17.50;99.90
27647;DHT22;42229;51.230;6.240;2023-05-16T11:42:37;17.60;99.90
27647;DHT22;42229;51.230;6.240;2023-05-16T11:45:08;17.90;99.90
27647;DHT22;42229;51.230;6.240;2023-05-16T11:47:40;18.20;99.90
27647;DHT22;42229;51.230;6.240;2023-05-16T11:50:14;18.40;99.90
27647;DHT22;42229;51.230;6.240;2023-05-16T11:52:43;18.80;99.90
27647;DHT22;42229;51.230;6.240;2023-05-16T11:55:10;19.10;99.90
27647;DHT22;42229;51.230;6.240;2023-05-16T11:57:37;19.40;99.90
27647;DHT22;42229;51.230;6.240;2023-05-16T12:00:17;19.60;99.90
27647;DHT22;42229;51.230;6.240;2023-05-16T12:02:50;19.90;99.90
27647;DHT22;42229;51.230;6.240;2023-05-16T12:05:18;20.10;99.90
27647;DHT22;42229;51.230;6.240;2023-05-16T12:07:46;20.30;99.90
27647;DHT22;42229;51.230;6.240;2023-05-16T12:10:13;20.60;99.90
27647;DHT22;42229;51.230;6.240;2023-05-16T12:12:41;20.80;99.90
27647;DHT22;42229;51.230;6.240;2023-05-16T12:15:09;21.10;99.90
27647;DHT22;42229;51.230;6.240;2023-05-16T12:17:37;21.50;99.90
27647;DHT22;42229;51.230;6.240;2023-05-16T12:20:04;21.90;99.90
27647;DHT22;42229;51.230;6.240;2023-05-16T12:22:31;22.10;99.90
27647;DHT22;42229;51.230;6.240;2023-05-16T12:24:58;22.30;99.90
27647;DHT22;42229;51.230;6.240;2023-05-16T12:27:25;22.20;99.90
27647;DHT22;42229;51.230;6.240;2023-05-16T12:29:52;22.10;99.90
27647;DHT22;42229;51.230;6.240;2023-05-16T12:32:19;21.90;99.90
27647;DHT22;42229;51.230;6.240;2023-05-16T12:34:49;21.60;99.90
27647;DHT22;42229;51.230;6.240;2023-05-16T12:37:17;21.30;99.90
27647;DHT22;42229;51.230;6.240;2023-05-16T12:39:43;21.00;99.90
27647;DHT22;42229;51.230;6.240;2023-05-16T12:42:12;20.70;99.90
27647;DHT22;42229;51.230;6.240;2023-05-16T12:44:39;20.50;99.90
27647;DHT22;42229;51.230;6.240;2023-05-16T12:47:10;20.30;99.90
27647;DHT22;42229;51.230;6.240;2023-05-16T12:49:43;20.10;99.90
27647;DHT22;42229;51.230;6.240;2023-05-16T12:52:17;20.10;99.90
27647;DHT22;42229;51.230;6.240;2023-05-16T12:54:48;20.40;99.90
27647;DHT22;42229;51.230;6.240;2023-05-16T12:57:14;20.80;99.90
27647;DHT22;42229;51.230;6.240;2023-05-16T12:59:40;21.20;99.90
27647;DHT22;42229;51.230;6.240;2023-05-16T13:02:07;21.50;99.90
27647;DHT22;42229;51.230;6.240;2023-05-16T13:04:33;21.70;99.90
27647;DHT22;42229;51.230;6.240;2023-05-16T13:06:59;21.80;99.90
27647;DHT22;42229;51.230;6.240;2023-05-16T13:09:25;21.80;99.90
27647;DHT22;42229;51.230;6.240;2023-05-16T13:11:52;21.80;99.90
27647;DHT22;42229;51.230;6.240;2023-05-16T13:14:18;21.70;99.90
27647;DHT22;42229;51.230;6.240;2023-05-16T13:16:44;21.50;99.90
27647;DHT22;42229;51.230;6.240;2023-05-16T13:19:10;21.40;99.90
27647;DHT22;42229;51.230;6.240;2023-05-16T13:21:37;21.20;99.90
27647;DHT22;42229;51.230;6.240;2023-05-16T13:24:03;21.00;99.90
27647;DHT22;42229;51.230;6.240;2023-05-16T13:26:29;20.70;99.90
27647;DHT22;42229;51.230;6.240;2023-05-16T13:28:56;20.50;99.90
27647;DHT22;42229;51.230;6.240;2023-05-16T13:31:22;20.20;99.90
27647;DHT22;42229;51.230;6.240;2023-05-16T13:33:48;20.00;99.90
27647;DHT22;42229;51.230;6.240;2023-05-16T13:36:14;19.80;99.90
27647;DHT22;42229;51.230;6.240;2023-05-16T13:38:41;19.60;99.90
27647;DHT22;42229;51.230;6.240;2023-05-16T13:41:07;19.50;99.90
27647;DHT22;42229;51.230;6.240;2023-05-16T13:43:33;19.50;99.90
27647;DHT22;42229;51.230;6.240;2023-05-16T13:45:59;19.50;99.90
27647;DHT22;42229;51.230;6.240;2023-05-16T13:48:26;19.50;99.90
27647;DHT22;42229;51.230;6.240;2023-05-16T13:50:52;19.40;99.90
27647;DHT22;42229;51.230;6.240;2023-05-16T13:53:18;19.40;99.90
27647;DHT22;42229;51.230;6.240;2023-05-16T13:55:45;19.40;99.90
27647;DHT22;42229;51.230;6.240;2023-05-16T13:58:11;19.30;99.90
27647;DHT22;42229;51.230;6.240;2023-05-16T14:00:37;19.20;99.90
27647;DHT22;42229;51.230;6.240;2023-05-16T14:03:03;19.10;99.90
27647;DHT22;42229;51.230;6.240;2023-05-16T14:05:30;19.00;99.90
27647;DHT22;42229;51.230;6.240;2023-05-16T14:07:56;19.00;99.90
27647;DHT22;42229;51.230;6.240;2023-05-16T14:10:22;19.00;99.90
27647;DHT22;42229;51.230;6.240;2023-05-16T14:12:48;19.00;99.90
27647;DHT22;42229;51.230;6.240;2023-05-16T14:15:15;19.00;99.90
27647;DHT22;42229;51.230;6.240;2023-05-16T14:17:41;19.10;99.90
27647;DHT22;42229;51.230;6.240;2023-05-16T14:20:07;19.10;99.90
27647;DHT22;42229;51.230;6.240;2023-05-16T14:22:36;19.10;99.90
27647;DHT22;42229;51.230;6.240;2023-05-16T14:25:03;19.10;99.90
27647;DHT22;42229;51.230;6.240;2023-05-16T14:27:30;19.10;99.90
27647;DHT22;42229;51.230;6.240;2023-05-16T14:29:57;19.00;99.90
27647;DHT22;42229;51.230;6.240;2023-05-16T14:32:23;19.10;99.90
27647;DHT22;42229;51.230;6.240;2023-05-16T14:34:49;19.10;99.90
27647;DHT22;42229;51.230;6.240;2023-05-16T14:37:16;19.10;99.90
27647;DHT22;42229;51.230;6.240;2023-05-16T14:39:43;19.10;99.90
27647;DHT22;42229;51.230;6.240;2023-05-16T14:42:11;19.20;99.90
27647;DHT22;42229;51.230;6.240;2023-05-16T14:44:37;19.20;99.90
27647;DHT22;42229;51.230;6.240;2023-05-16T14:47:03;19.00;99.90
27647;DHT22;42229;51.230;6.240;2023-05-16T14:49:30;18.90;99.90
27647;DHT22;42229;51.230;6.240;2023-05-16T14:51:57;18.80;99.90
27647;DHT22;42229;51.230;6.240;2023-05-16T14:54:23;18.60;99.90
27647;DHT22;42229;51.230;6.240;2023-05-16T14:56:49;18.40;99.90
27647;DHT22;42229;51.230;6.240;2023-05-16T14:59:16;18.30;99.90
27647;DHT22;42229;51.230;6.240;2023-05-16T15:01:42;18.20;99.90
27647;DHT22;42229;51.230;6.240;2023-05-16T15:04:08;18.10;99.90
27647;DHT22;42229;51.230;6.240;2023-05-16T15:06:35;18.10;99.90
27647;DHT22;42229;51.230;6.240;2023-05-16T15:09:01;18.00;99.90
27647;DHT22;42229;51.230;6.240;2023-05-16T15:11:28;18.00;99.90
27647;DHT22;42229;51.230;6.240;2023-05-16T15:13:54;17.90;99.90
27647;DHT22;42229;51.230;6.240;2023-05-16T15:16:21;17.90;99.90
27647;DHT22;42229;51.230;6.240;2023-05-16T15:18:48;17.80;99.90
27647;DHT22;42229;51.230;6.240;2023-05-16T15:21:14;17.70;99.90
27647;DHT22;42229;51.230;6.240;2023-05-16T15:23:40;17.70;99.90
27647;DHT22;42229;51.230;6.240;2023-05-16T15:26:08;17.70;99.90
27647;DHT22;42229;51.230;6.240;2023-05-16T15:28:34;17.60;99.90
27647;DHT22;42229;51.230;6.240;2023-05-16T15:31:02;17.60;99.90
27647;DHT22;42229;51.230;6.240;2023-05-16T15:33:30;17.60;99.90
27647;DHT22;42229;51.230;6.240;2023-05-16T15:35:56;17.60;99.90
27647;DHT22;42229;51.230;6.240;2023-05-16T15:38:22;17.60;99.90
27647;DHT22;42229;51.230;6.240;2023-05-16T15:40:49;17.80;99.90
27647;DHT22;42229;51.230;6.240;2023-05-16T15:43:15;18.00;99.90
27647;DHT22;42229;51.230;6.240;2023-05-16T15:45:42;18.20;99.90